Time;durP1;ratioP1;P1;durP2;ratioP2;P2;SDS_P1;SDS_P2;PMS_P1;PMS_P2;Temp;Humidity;BMP_temperature;BMP_pressure;BME280_temperature;BME280_humidity;BME280_pressure;Samples;Min_cycle;Max_cycle;Signal;HPM_P1;HPM_P2
2023/09/06 00:02:22;;;;;;;723.15;264.60;;;;;;;;;;5046127;28;20481;-50
2023/09/06 00:04:48;;;;;;;722.78;264.35;;;;;;;;;;5045863;28;20059;-51
2023/09/06 00:07:13;;;;;;;719.55;259.30;;;;;;;;;;5046077;28;20295;-52
2023/09/06 00:09:39;;;;;;;722.08;258.88;;;;;;;;;;5045941;28;20088;-51
2023/09/06 00:12:05;;;;;;;726.58;271.83;;;;;;;;;;5046059;28;20037;-54
2023/09/06 00:14:30;;;;;;;723.67;263.85;;;;;;;;;;5046461;28;20516;-48
2023/09/06 00:16:55;;;;;;;720.80;260.35;;;;;;;;;;5060096;28;20500;-49
2023/09/06 00:19:21;;;;;;;722.67;261.77;;;;;;;;;;5046342;28;20027;-53
2023/09/06 00:21:47;;;;;;;723.65;265.65;;;;;;;;;;5065721;28;20483;-51
2023/09/06 00:24:13;;;;;;;720.90;249.88;;;;;;;;;;5048020;28;20016;-53
2023/09/06 00:26:41;;;;;;;725.10;264.23;;;;;;;;;;5065279;28;20024;-53
2023/09/06 00:29:07;;;;;;;725.10;262.05;;;;;;;;;;5065482;28;20033;-51
2023/09/06 00:31:33;;;;;;;722.50;254.75;;;;;;;;;;5064846;28;20490;-49
2023/09/06 00:33:58;;;;;;;717.40;247.48;;;;;;;;;;5045230;28;20137;-51
2023/09/06 00:36:23;;;;;;;719.13;249.65;;;;;;;;;;5045312;28;20053;-51
2023/09/06 00:38:48;;;;;;;720.22;259.77;;;;;;;;;;5060477;28;20099;-53
2023/09/06 00:41:14;;;;;;;715.13;241.95;;;;;;;;;;5065082;28;20115;-51
2023/09/06 00:43:39;;;;;;;717.35;244.30;;;;;;;;;;5064819;28;20503;-49
2023/09/06 00:46:07;;;;;;;721.30;245.90;;;;;;;;;;5064907;28;20031;-47
2023/09/06 00:48:34;;;;;;;720.60;247.43;;;;;;;;;;5064637;28;20105;-51
2023/09/06 00:50:59;;;;;;;720.42;252.55;;;;;;;;;;5045443;28;20028;-52
2023/09/06 00:53:25;;;;;;;719.80;248.13;;;;;;;;;;5044840;28;20025;-52
2023/09/06 00:55:52;;;;;;;720.00;245.80;;;;;;;;;;5045102;28;20396;-51
2023/09/06 00:58:18;;;;;;;715.70;246.60;;;;;;;;;;5044859;28;20465;-52
2023/09/06 01:00:43;;;;;;;720.58;246.30;;;;;;;;;;5044928;28;20082;-51
2023/09/06 01:03:09;;;;;;;718.33;242.32;;;;;;;;;;5045116;28;20480;-50
2023/09/06 01:05:43;;;;;;;718.60;248.60;;;;;;;;;;5045366;28;21270;-52
2023/09/06 01:08:10;;;;;;;718.50;247.00;;;;;;;;;;5044658;28;20048;-52
2023/09/06 01:10:36;;;;;;;719.60;247.05;;;;;;;;;;5045151;28;20135;-53
2023/09/06 01:13:01;;;;;;;719.63;249.13;;;;;;;;;;5044592;28;20107;-52
2023/09/06 01:15:27;;;;;;;717.53;245.45;;;;;;;;;;5053028;28;20055;-52
2023/09/06 01:17:53;;;;;;;715.85;238.88;;;;;;;;;;5064195;28;20027;-50
2023/09/06 01:20:23;;;;;;;723.80;250.98;;;;;;;;;;5069872;28;20069;-53
2023/09/06 01:23:12;;;;;;;719.25;244.27;;;;;;;;;;5046699;28;20068;-48
2023/09/06 01:25:37;;;;;;;720.05;252.68;;;;;;;;;;5064039;28;20330;-50
2023/09/06 01:28:02;;;;;;;758.17;343.48;;;;;;;;;;5064401;28;20166;-53
2023/09/06 01:30:30;;;;;;;755.75;346.05;;;;;;;;;;5064356;28;20044;-51
2023/09/06 01:32:56;;;;;;;752.45;344.38;;;;;;;;;;5063570;28;20154;-52
2023/09/06 01:35:21;;;;;;;753.53;336.65;;;;;;;;;;5063960;28;20043;-50
2023/09/06 01:37:50;;;;;;;749.75;323.95;;;;;;;;;;5064125;28;20020;-52
2023/09/06 01:40:17;;;;;;;742.63;293.52;;;;;;;;;;5057209;28;20136;-51
2023/09/06 01:42:43;;;;;;;746.30;325.27;;;;;;;;;;5043988;28;20033;-51
2023/09/06 01:45:08;;;;;;;742.53;302.58;;;;;;;;;;5043750;28;20028;-48
2023/09/06 01:47:33;;;;;;;748.83;316.45;;;;;;;;;;5044024;28;20029;-51
2023/09/06 01:49:59;;;;;;;739.38;294.20;;;;;;;;;;5044054;28;20025;-50
2023/09/06 01:52:24;;;;;;;754.78;344.23;;;;;;;;;;5044079;28;20017;-51
2023/09/06 01:54:49;;;;;;;752.80;345.20;;;;;;;;;;5043747;28;20028;-52
2023/09/06 01:57:14;;;;;;;750.83;325.55;;;;;;;;;;5044659;28;20111;-54
2023/09/06 01:59:40;;;;;;;753.22;334.10;;;;;;;;;;5043655;28;20024;-51
2023/09/06 02:02:05;;;;;;;760.78;366.52;;;;;;;;;;5043865;28;20407;-53
2023/09/06 02:04:30;;;;;;;754.03;350.08;;;;;;;;;;5043860;28;20032;-48
2023/09/06 02:06:55;;;;;;;754.97;337.88;;;;;;;;;;5043349;28;20043;-54
2023/09/06 02:09:21;;;;;;;747.88;319.58;;;;;;;;;;5043628;28;20032;-48
2023/09/06 02:11:46;;;;;;;735.13;295.42;;;;;;;;;;5043763;28;20013;-51
2023/09/06 02:14:12;;;;;;;744.70;322.65;;;;;;;;;;5049999;28;20064;-50
2023/09/06 02:16:37;;;;;;;745.97;312.45;;;;;;;;;;5081817;28;20016;-51
2023/09/06 02:19:03;;;;;;;742.08;308.55;;;;;;;;;;5083176;28;20395;-54
2023/09/06 02:21:28;;;;;;;753.13;340.92;;;;;;;;;;5083674;28;20097;-53
2023/09/06 02:23:53;;;;;;;749.50;332.52;;;;;;;;;;5083716;28;20395;-56
2023/09/06 02:26:19;;;;;;;746.08;319.23;;;;;;;;;;5084064;28;20123;-49
2023/09/06 02:28:44;;;;;;;733.95;293.02;;;;;;;;;;5083989;28;20486;-53
2023/09/06 02:31:09;;;;;;;745.10;307.05;;;;;;;;;;5071619;28;20461;-51
2023/09/06 02:33:34;;;;;;;741.67;313.15;;;;;;;;;;5042937;28;20045;-51
2023/09/06 02:36:00;;;;;;;739.63;292.70;;;;;;;;;;5043337;28;20451;-50
2023/09/06 02:38:26;;;;;;;737.55;300.83;;;;;;;;;;5046211;28;20111;-51
2023/09/06 02:40:52;;;;;;;735.42;283.17;;;;;;;;;;5045898;28;20028;-54
2023/09/06 02:43:17;;;;;;;745.22;325.08;;;;;;;;;;5063091;28;20082;-47
2023/09/06 02:45:49;;;;;;;739.50;300.83;;;;;;;;;;5062954;28;20028;-52
2023/09/06 02:48:16;;;;;;;736.00;289.00;;;;;;;;;;5057412;28;20463;-54
2023/09/06 02:50:44;;;;;;;741.25;302.45;;;;;;;;;;5043476;28;20053;-52
2023/09/06 02:53:19;;;;;;;747.33;335.17;;;;;;;;;;5042961;28;20025;-48
2023/09/06 02:55:45;;;;;;;750.42;329.92;;;;;;;;;;5043685;28;20052;-53
2023/09/06 02:58:10;;;;;;;754.28;337.58;;;;;;;;;;5043638;28;20440;-52
2023/09/06 03:00:40;;;;;;;738.10;304.23;;;;;;;;;;5043744;28;20021;-53
2023/09/06 03:03:05;;;;;;;734.53;278.88;;;;;;;;;;5043315;28;20090;-52
2023/09/06 03:05:31;;;;;;;740.40;291.95;;;;;;;;;;5043717;28;20021;-54
2023/09/06 03:07:56;;;;;;;738.15;285.42;;;;;;;;;;5043341;28;20045;-53
2023/09/06 03:10:22;;;;;;;735.67;279.27;;;;;;;;;;5043486;28;20017;-53
2023/09/06 03:12:54;;;;;;;732.58;286.25;;;;;;;;;;5043300;28;20445;-52
2023/09/06 03:15:22;;;;;;;738.50;296.25;;;;;;;;;;5059004;28;20024;-50
2023/09/06 03:17:48;;;;;;;736.47;294.00;;;;;;;;;;5062938;28;20044;-55
2023/09/06 03:20:19;;;;;;;728.50;270.58;;;;;;;;;;5063139;28;20023;-52
2023/09/06 03:22:50;;;;;;;737.30;291.88;;;;;;;;;;5062288;28;20028;-52
2023/09/06 03:25:15;;;;;;;733.10;282.63;;;;;;;;;;5063102;28;20012;-51
2023/09/06 03:27:43;;;;;;;716.05;243.30;;;;;;;;;;5043853;28;20381;-54
2023/09/06 03:30:09;;;;;;;733.60;284.33;;;;;;;;;;5062871;28;20017;-52
2023/09/06 03:32:35;;;;;;;734.53;289.98;;;;;;;;;;5065443;28;20059;-53
2023/09/06 03:35:01;;;;;;;745.35;313.27;;;;;;;;;;5066614;28;20450;-50
2023/09/06 03:37:28;;;;;;;742.20;321.27;;;;;;;;;;5066688;28;20054;-53
2023/09/06 03:39:54;;;;;;;740.47;307.30;;;;;;;;;;5054901;28;20461;-53
2023/09/06 03:42:20;;;;;;;729.33;272.23;;;;;;;;;;5028684;28;20025;-55
2023/09/06 03:44:46;;;;;;;722.63;257.60;;;;;;;;;;5046781;28;20033;-53
2023/09/06 03:47:15;;;;;;;728.38;272.10;;;;;;;;;;5046398;28;20044;-54
2023/09/06 03:49:41;;;;;;;709.75;205.38;;;;;;;;;;5046680;28;20020;-52
2023/09/06 03:52:07;;;;;;;720.30;236.63;;;;;;;;;;5046510;28;20453;-52
2023/09/06 03:54:34;;;;;;;733.50;283.42;;;;;;;;;;5046432;28;20040;-54
2023/09/06 03:57:02;;;;;;;731.47;280.65;;;;;;;;;;5058709;28;20112;-56
2023/09/06 03:59:28;;;;;;;725.03;256.50;;;;;;;;;;5066294;28;20056;-53
2023/09/06 04:01:55;;;;;;;710.53;217.18;;;;;;;;;;5066558;28;20028;-51
2023/09/06 04:04:21;;;;;;;725.92;259.48;;;;;;;;;;5048311;28;20514;-52
2023/09/06 04:06:46;;;;;;;705.47;207.48;;;;;;;;;;5066548;28;20024;-53
2023/09/06 04:09:14;;;;;;;721.63;242.90;;;;;;;;;;5066025;28;20032;-52
2023/09/06 04:11:40;;;;;;;701.03;192.70;;;;;;;;;;5066164;28;20479;-56
2023/09/06 04:14:05;;;;;;;699.88;197.52;;;;;;;;;;5058171;28;20020;-49
2023/09/06 04:16:31;;;;;;;701.63;197.15;;;;;;;;;;5065690;28;20447;-52
2023/09/06 04:18:56;;;;;;;700.88;201.88;;;;;;;;;;5065920;28;20510;-51
2023/09/06 04:21:22;;;;;;;720.80;257.88;;;;;;;;;;5065518;28;20024;-52
2023/09/06 04:23:48;;;;;;;720.38;255.73;;;;;;;;;;5066073;28;20035;-48
2023/09/06 04:26:14;;;;;;;724.83;276.85;;;;;;;;;;5065748;28;20028;-51
2023/09/06 04:28:40;;;;;;;726.42;271.58;;;;;;;;;;5065774;28;20025;-50
2023/09/06 04:31:05;;;;;;;732.40;287.02;;;;;;;;;;5064484;28;20427;-49
2023/09/06 04:33:30;;;;;;;740.83;311.55;;;;;;;;;;5065194;28;20056;-52
2023/09/06 04:35:56;;;;;;;730.40;278.63;;;;;;;;;;5064651;28;20024;-53
2023/09/06 04:38:24;;;;;;;737.17;295.25;;;;;;;;;;5065538;28;20107;-54
2023/09/06 04:40:51;;;;;;;728.33;286.30;;;;;;;;;;5065663;28;20024;-51
2023/09/06 04:43:17;;;;;;;728.80;288.92;;;;;;;;;;5046546;28;20025;-54
2023/09/06 04:45:42;;;;;;;726.10;271.95;;;;;;;;;;5045162;28;20035;-53
2023/09/06 04:48:09;;;;;;;739.72;295.10;;;;;;;;;;5046192;28;20393;-55
2023/09/06 04:50:40;;;;;;;731.40;282.30;;;;;;;;;;5045768;28;20128;-52
2023/09/06 04:53:09;;;;;;;734.53;289.17;;;;;;;;;;5026683;28;20124;-51
2023/09/06 04:55:35;;;;;;;735.05;296.60;;;;;;;;;;5045222;28;20021;-52
2023/09/06 04:58:04;;;;;;;735.28;288.88;;;;;;;;;;5045537;28;20027;-53
2023/09/06 05:00:37;;;;;;;737.50;306.23;;;;;;;;;;5045538;28;20017;-52
2023/09/06 05:03:03;;;;;;;741.63;298.17;;;;;;;;;;5026778;28;20025;-52
2023/09/06 05:05:28;;;;;;;737.03;283.02;;;;;;;;;;5062043;28;20082;-54
2023/09/06 05:07:53;;;;;;;754.40;353.17;;;;;;;;;;5064902;28;20020;-54
2023/09/06 05:10:19;;;;;;;769.10;328.33;;;;;;;;;;5064786;28;20034;-53
2023/09/06 05:12:45;;;;;;;757.90;338.65;;;;;;;;;;5065138;28;20028;-52
2023/09/06 05:15:12;;;;;;;751.63;340.25;;;;;;;;;;5064649;28;20107;-52
2023/09/06 05:17:38;;;;;;;760.97;360.90;;;;;;;;;;5064743;28;20109;-51
2023/09/06 05:20:21;;;;;;;769.50;399.60;;;;;;;;;;5064596;28;20133;-48
2023/09/06 05:22:47;;;;;;;777.03;421.17;;;;;;;;;;5063588;28;20020;-52
2023/09/06 05:25:12;;;;;;;785.55;475.65;;;;;;;;;;5064818;28;20371;-51
2023/09/06 05:27:37;;;;;;;792.58;487.83;;;;;;;;;;5064509;28;20021;-55
2023/09/06 05:30:03;;;;;;;786.25;441.40;;;;;;;;;;5064845;28;20020;-54
2023/09/06 05:32:28;;;;;;;792.42;474.58;;;;;;;;;;5064450;28;20571;-51
2023/09/06 05:34:53;;;;;;;808.13;556.53;;;;;;;;;;5064226;28;20043;-52
2023/09/06 05:37:19;;;;;;;819.05;545.30;;;;;;;;;;5077306;28;20403;-54
2023/09/06 05:39:44;;;;;;;836.53;611.85;;;;;;;;;;5061412;28;20049;-56
2023/09/06 05:42:09;;;;;;;845.17;642.35;;;;;;;;;;5064325;28;20025;-51
2023/09/06 05:44:34;;;;;;;837.17;595.97;;;;;;;;;;5064036;28;20123;-54
2023/09/06 05:47:00;;;;;;;832.92;593.22;;;;;;;;;;5064394;28;20492;-49
2023/09/06 05:49:25;;;;;;;824.35;551.90;;;;;;;;;;5063921;28;20059;-53
2023/09/06 05:51:50;;;;;;;798.35;484.55;;;;;;;;;;5064371;28;20016;-52
2023/09/06 05:56:52;;;;;;;830.38;506.92;;;;;;;;;;5060197;28;20374;-52
2023/09/06 05:59:19;;;;;;;886.42;658.42;;;;;;;;;;5060450;28;20496;-52
2023/09/06 06:01:44;;;;;;;911.35;536.25;;;;;;;;;;5056766;28;20025;-50
2023/09/06 06:04:11;;;;;;;867.05;594.65;;;;;;;;;;5052616;28;20027;-53
2023/09/06 06:06:36;;;;;;;862.88;576.28;;;;;;;;;;5054584;28;20074;-48
2023/09/06 06:09:02;;;;;;;871.60;647.33;;;;;;;;;;5049423;28;20029;-50
2023/09/06 06:11:27;;;;;;;885.97;660.40;;;;;;;;;;5051679;28;20761;-52
2023/09/06 06:13:53;;;;;;;888.38;677.47;;;;;;;;;;5051201;28;20059;-51
2023/09/06 06:16:18;;;;;;;936.78;763.33;;;;;;;;;;5052445;28;20017;-52
2023/09/06 06:18:44;;;;;;;951.97;689.22;;;;;;;;;;5058301;28;20021;-51
2023/09/06 06:21:11;;;;;;;924.92;742.10;;;;;;;;;;5053073;28;20059;-52
2023/09/06 06:23:36;;;;;;;931.10;666.42;;;;;;;;;;5051530;28;20032;-52
2023/09/06 06:26:01;;;;;;;960.10;715.20;;;;;;;;;;5046897;28;20021;-50
2023/09/06 06:28:27;;;;;;;888.70;676.13;;;;;;;;;;5055725;28;20102;-56
2023/09/06 06:30:52;;;;;;;883.63;590.63;;;;;;;;;;5056914;28;20107;-52
2023/09/06 06:33:17;;;;;;;895.22;683.47;;;;;;;;;;5055581;28;20465;-54
2023/09/06 06:35:42;;;;;;;956.38;774.08;;;;;;;;;;5052246;28;20068;-54
2023/09/06 06:38:08;;;;;;;950.53;782.42;;;;;;;;;;5054311;28;20013;-56
2023/09/06 06:40:36;;;;;;;952.40;754.50;;;;;;;;;;5045049;28;20087;-58
2023/09/06 06:43:01;;;;;;;938.33;756.45;;;;;;;;;;5046960;28;20476;-53
2023/09/06 06:45:27;;;;;;;909.20;738.70;;;;;;;;;;5047237;28;20068;-56
2023/09/06 06:48:55;;;;;;;906.17;724.35;;;;;;;;;;5054803;27;20393;-57
2023/09/06 06:52:02;;;;;;;897.35;685.15;;;;;;;;;;5080864;28;20377;-56
2023/09/06 06:54:27;;;;;;;873.80;668.50;;;;;;;;;;5066933;28;20031;-57
2023/09/06 06:56:53;;;;;;;873.25;649.38;;;;;;;;;;5064159;28;20079;-54
2023/09/06 06:59:18;;;;;;;866.97;653.92;;;;;;;;;;5058931;28;20028;-56
2023/09/06 07:01:43;;;;;;;996.10;731.42;;;;;;;;;;5071755;28;20028;-57
2023/09/06 07:04:09;;;;;;;884.40;705.40;;;;;;;;;;5068671;28;20118;-52
2023/09/06 07:06:35;;;;;;;851.35;657.05;;;;;;;;;;5069418;28;20069;-55
2023/09/06 07:09:03;;;;;;;847.97;682.10;;;;;;;;;;5073431;28;20024;-58
2023/09/06 07:11:28;;;;;;;852.55;674.55;;;;;;;;;;5072498;28;20206;-57
2023/09/06 07:13:54;;;;;;;904.60;676.35;;;;;;;;;;5066851;28;20173;-54
2023/09/06 07:16:19;;;;;;;856.40;697.83;;;;;;;;;;5078759;28;20425;-57
2023/09/06 07:18:45;;;;;;;846.35;685.25;;;;;;;;;;5089493;28;20026;-56
2023/09/06 07:21:11;;;;;;;921.38;771.78;;;;;;;;;;5067141;28;20024;-60
2023/09/06 07:23:36;;;;;;;953.38;807.65;;;;;;;;;;5067382;28;20029;-53
2023/09/06 07:26:02;;;;;;;950.05;801.65;;;;;;;;;;5077692;28;20093;-50
2023/09/06 07:28:35;;;;;;;953.72;810.00;;;;;;;;;;5065820;28;20514;-53
2023/09/06 07:31:00;;;;;;;946.63;806.00;;;;;;;;;;5065263;28;20090;-48
2023/09/06 07:33:26;;;;;;;934.83;784.63;;;;;;;;;;5065048;28;20021;-57
2023/09/06 07:35:51;;;;;;;947.45;800.10;;;;;;;;;;5066809;28;20273;-54
2023/09/06 07:38:16;;;;;;;956.47;807.25;;;;;;;;;;5067695;28;20098;-54
2023/09/06 07:40:41;;;;;;;961.13;817.08;;;;;;;;;;5068825;28;20017;-56
2023/09/06 07:43:07;;;;;;;953.28;801.92;;;;;;;;;;5070543;28;20526;-56
2023/09/06 07:45:32;;;;;;;953.85;798.50;;;;;;;;;;5065943;28;20031;-60
2023/09/06 07:47:57;;;;;;;950.63;792.55;;;;;;;;;;5068859;28;20111;-60
2023/09/06 07:50:23;;;;;;;951.30;812.97;;;;;;;;;;5069634;28;20048;-57
2023/09/06 07:52:48;;;;;;;958.42;820.88;;;;;;;;;;5065840;28;20028;-53
2023/09/06 07:55:13;;;;;;;961.65;828.50;;;;;;;;;;5071120;28;20043;-53
2023/09/06 07:57:39;;;;;;;957.22;810.53;;;;;;;;;;5085317;28;20077;-47
2023/09/06 08:00:05;;;;;;;968.05;826.88;;;;;;;;;;5097425;28;20028;-54
2023/09/06 08:02:30;;;;;;;961.67;833.63;;;;;;;;;;5071049;28;20031;-55
2023/09/06 08:04:55;;;;;;;968.57;837.37;;;;;;;;;;5062200;28;20021;-53
2023/09/06 08:07:22;;;;;;;965.13;834.20;;;;;;;;;;5066728;28;20332;-54
2023/09/06 08:09:47;;;;;;;966.33;835.10;;;;;;;;;;5075356;28;20249;-53
2023/09/06 08:12:13;;;;;;;968.53;848.35;;;;;;;;;;5062215;28;20058;-55
2023/09/06 08:14:39;;;;;;;975.28;853.03;;;;;;;;;;5058034;28;20033;-49
2023/09/06 08:17:04;;;;;;;974.17;856.60;;;;;;;;;;5054526;28;20040;-53
2023/09/06 08:19:29;;;;;;;975.30;861.53;;;;;;;;;;5045411;28;20029;-46
2023/09/06 08:21:55;;;;;;;969.27;850.73;;;;;;;;;;5048820;28;20402;-50
2023/09/06 08:24:20;;;;;;;979.78;859.25;;;;;;;;;;5052415;28;20281;-49
2023/09/06 08:26:45;;;;;;;984.00;874.53;;;;;;;;;;5048841;28;20094;-50
2023/09/06 08:29:11;;;;;;;1001.25;891.28;;;;;;;;;;5051445;28;20063;-49
2023/09/06 08:31:36;;;;;;;993.33;874.65;;;;;;;;;;5051347;28;20426;-44
2023/09/06 08:34:02;;;;;;;980.47;872.33;;;;;;;;;;5050033;28;20029;-50
2023/09/06 08:36:27;;;;;;;984.50;875.42;;;;;;;;;;5044514;28;20350;-47
2023/09/06 08:38:53;;;;;;;952.83;835.47;;;;;;;;;;5062010;28;20040;-56
2023/09/06 08:41:20;;;;;;;962.00;850.45;;;;;;;;;;5058091;28;20033;-54
2023/09/06 08:43:46;;;;;;;943.17;824.28;;;;;;;;;;5052844;28;20023;-54
2023/09/06 08:46:18;;;;;;;935.00;821.63;;;;;;;;;;5051074;28;20020;-50
2023/09/06 08:48:44;;;;;;;954.47;837.47;;;;;;;;;;5046020;28;20411;-54
2023/09/06 08:51:11;;;;;;;952.22;822.97;;;;;;;;;;5048027;28;20053;-55
2023/09/06 08:53:36;;;;;;;968.03;860.58;;;;;;;;;;5058938;28;20024;-52
2023/09/06 08:56:03;;;;;;;797.55;549.65;;;;;;;;;;5050300;28;20043;-49
2023/09/06 08:58:29;;;;;;;940.35;827.53;;;;;;;;;;5049398;28;20028;-52
2023/09/06 09:00:55;;;;;;;949.47;840.47;;;;;;;;;;5044649;28;20029;-53
2023/09/06 09:03:20;;;;;;;972.83;857.40;;;;;;;;;;5049459;28;20499;-53
2023/09/06 09:05:46;;;;;;;975.47;854.97;;;;;;;;;;5046202;28;21210;-50
2023/09/06 09:08:11;;;;;;;965.90;850.77;;;;;;;;;;5046091;28;20262;-50
2023/09/06 09:10:36;;;;;;;962.57;848.77;;;;;;;;;;5047760;28;20278;-54
2023/09/06 09:13:01;;;;;;;959.67;849.05;;;;;;;;;;5056529;28;20339;-53
2023/09/06 09:15:29;;;;;;;964.33;849.80;;;;;;;;;;5052291;28;20527;-55
2023/09/06 09:17:54;;;;;;;960.10;842.97;;;;;;;;;;5060573;28;20029;-59
2023/09/06 09:20:20;;;;;;;960.90;849.25;;;;;;;;;;5035637;28;20171;-56
2023/09/06 09:22:45;;;;;;;965.08;856.13;;;;;;;;;;5049715;28;20070;-57
2023/09/06 09:25:17;;;;;;;960.67;846.03;;;;;;;;;;5053115;28;20037;-56
2023/09/06 09:27:46;;;;;;;940.80;834.92;;;;;;;;;;5045046;28;20021;-57
2023/09/06 09:30:12;;;;;;;962.03;855.25;;;;;;;;;;5045268;28;20033;-53
2023/09/06 09:32:40;;;;;;;962.33;855.08;;;;;;;;;;5060374;28;20016;-54
2023/09/06 09:35:10;;;;;;;961.47;854.75;;;;;;;;;;5058644;28;20312;-53
2023/09/06 09:37:36;;;;;;;961.35;854.88;;;;;;;;;;5042579;28;20025;-52
2023/09/06 09:40:17;;;;;;;962.75;856.72;;;;;;;;;;5054917;28;20476;-51
2023/09/06 09:42:55;;;;;;;971.47;864.45;;;;;;;;;;5038633;28;20082;-55
2023/09/06 09:45:30;;;;;;;960.22;853.13;;;;;;;;;;5044138;28;20175;-52
2023/09/06 09:47:57;;;;;;;955.22;848.35;;;;;;;;;;5058726;28;20083;-56
2023/09/06 09:50:23;;;;;;;964.80;858.22;;;;;;;;;;5063947;28;20094;-55
2023/09/06 09:52:48;;;;;;;970.10;863.53;;;;;;;;;;5059816;28;20242;-55
2023/09/06 09:55:17;;;;;;;972.45;865.80;;;;;;;;;;5048739;28;20333;-55
2023/09/06 09:57:46;;;;;;;969.13;862.08;;;;;;;;;;5063503;28;20415;-55
2023/09/06 10:00:13;;;;;;;963.70;857.00;;;;;;;;;;5063692;28;20516;-56
2023/09/06 10:02:39;;;;;;;982.10;874.53;;;;;;;;;;5063751;28;20030;-51
2023/09/06 10:05:08;;;;;;;947.30;842.38;;;;;;;;;;5064081;28;20017;-57
2023/09/06 10:07:34;;;;;;;951.05;847.83;;;;;;;;;;5029018;28;20524;-56
2023/09/06 10:10:00;;;;;;;971.83;864.63;;;;;;;;;;5076610;28;20225;-56
2023/09/06 10:12:26;;;;;;;967.45;860.55;;;;;;;;;;5075856;28;20035;-56
2023/09/06 10:14:52;;;;;;;989.95;881.90;;;;;;;;;;5080727;28;20028;-57
2023/09/06 10:17:17;;;;;;;997.90;888.13;;;;;;;;;;5073992;28;20504;-58
2023/09/06 10:19:42;;;;;;;999.33;889.47;;;;;;;;;;5074199;28;20043;-53
2023/09/06 10:22:09;;;;;;;999.58;889.47;;;;;;;;;;5070220;28;20028;-57
2023/09/06 10:24:35;;;;;;;1002.75;893.35;;;;;;;;;;5055436;28;20039;-55
2023/09/06 10:27:01;;;;;;;1008.97;898.67;;;;;;;;;;5057281;28;20398;-51
2023/09/06 10:29:28;;;;;;;1007.78;897.80;;;;;;;;;;5060675;28;20040;-51
2023/09/06 10:31:58;;;;;;;1002.53;893.33;;;;;;;;;;5071099;28;20036;-54
2023/09/06 10:34:23;;;;;;;1008.67;899.13;;;;;;;;;;5076289;28;20471;-49
2023/09/06 10:36:53;;;;;;;989.73;882.10;;;;;;;;;;5070515;28;20055;-51
2023/09/06 10:39:21;;;;;;;990.33;881.75;;;;;;;;;;5062396;28;20455;-49
2023/09/06 10:42:05;;;;;;;977.95;870.25;;;;;;;;;;5057606;28;20051;-53
2023/09/06 10:44:51;;;;;;;977.70;870.63;;;;;;;;;;5055491;28;20383;-51
2023/09/06 10:47:26;;;;;;;957.10;852.75;;;;;;;;;;5050566;28;20020;-55
2023/09/06 10:50:11;;;;;;;963.28;860.20;;;;;;;;;;5046881;28;20680;-55
2023/09/06 10:52:44;;;;;;;965.50;857.63;;;;;;;;;;5048361;28;20056;-55
2023/09/06 10:55:13;;;;;;;968.95;862.20;;;;;;;;;;5047297;28;20544;-55
2023/09/06 10:57:55;;;;;;;980.30;873.15;;;;;;;;;;5050708;28;20033;-57
2023/09/06 11:00:25;;;;;;;945.33;829.78;;;;;;;;;;5051641;28;20025;-58
2023/09/06 11:03:09;;;;;;;963.88;857.40;;;;;;;;;;5057612;28;20020;-55
2023/09/06 11:05:35;;;;;;;978.80;871.40;;;;;;;;;;5057570;28;20024;-58
2023/09/06 11:08:01;;;;;;;984.03;875.97;;;;;;;;;;5059886;28;20043;-57
2023/09/06 11:10:26;;;;;;;994.03;885.58;;;;;;;;;;5047206;28;20032;-54
2023/09/06 11:12:55;;;;;;;978.25;870.45;;;;;;;;;;5046277;28;20089;-52
2023/09/06 11:15:20;;;;;;;978.92;871.40;;;;;;;;;;5052212;28;20747;-51
2023/09/06 11:17:46;;;;;;;977.72;870.67;;;;;;;;;;5054337;28;20281;-56
2023/09/06 11:20:12;;;;;;;962.08;855.80;;;;;;;;;;5049670;28;20571;-54
2023/09/06 11:22:58;;;;;;;962.05;857.50;;;;;;;;;;5047700;28;20025;-58
2023/09/06 11:25:25;;;;;;;972.72;869.75;;;;;;;;;;5054460;28;20407;-56
2023/09/06 11:27:50;;;;;;;978.70;875.63;;;;;;;;;;5061284;28;20101;-57
2023/09/06 11:30:21;;;;;;;979.40;871.83;;;;;;;;;;5059657;28;20471;-57
2023/09/06 11:32:46;;;;;;;979.50;872.80;;;;;;;;;;5047702;28;20037;-57
2023/09/06 11:35:13;;;;;;;970.03;863.58;;;;;;;;;;5045441;28;20039;-55
2023/09/06 11:37:42;;;;;;;978.50;871.58;;;;;;;;;;5043431;28;20024;-56
2023/09/06 11:40:15;;;;;;;;;;;;;;;;;;5049452;28;20472;-54
2023/09/06 11:42:40;;;;;;;974.58;867.03;;;;;;;;;;5049434;28;19911;-55
2023/09/06 11:45:07;;;;;;;1009.08;899.33;;;;;;;;;;5053799;28;20024;-53
2023/09/06 11:47:32;;;;;;;1002.97;893.95;;;;;;;;;;5049466;28;20131;-58
2023/09/06 11:50:02;;;;;;;986.97;878.85;;;;;;;;;;5028947;28;20151;-55
2023/09/06 11:52:30;;;;;;;996.75;888.22;;;;;;;;;;5050552;28;20101;-55
2023/09/06 11:55:05;;;;;;;984.80;876.90;;;;;;;;;;5051711;28;20049;-51
2023/09/06 11:57:31;;;;;;;980.38;871.85;;;;;;;;;;5059484;28;20269;-52
2023/09/06 11:59:57;;;;;;;983.58;874.92;;;;;;;;;;5064676;28;20021;-52
2023/09/06 12:02:26;;;;;;;978.58;870.30;;;;;;;;;;5066383;28;20032;-52
2023/09/06 12:04:51;;;;;;;;;;;;;;;;;;5065280;28;20043;-51
2023/09/06 12:07:22;;;;;;;962.08;846.35;;;;;;;;;;5066174;28;19911;-55
2023/09/06 12:09:48;;;;;;;956.47;848.35;;;;;;;;;;5061543;28;20024;-50
2023/09/06 12:12:17;;;;;;;971.58;856.88;;;;;;;;;;5057082;28;20175;-51
2023/09/06 12:14:43;;;;;;;967.72;855.45;;;;;;;;;;5045141;28;20037;-49
2023/09/06 12:17:08;;;;;;;949.40;828.05;;;;;;;;;;5061101;28;20036;-52
2023/09/06 12:19:33;;;;;;;960.10;845.33;;;;;;;;;;5055839;28;20460;-53
2023/09/06 12:22:01;;;;;;;941.40;741.77;;;;;;;;;;5059950;28;20021;-54
2023/09/06 12:24:26;;;;;;;946.65;634.75;;;;;;;;;;5057752;28;20261;-55
2023/09/06 12:26:51;;;;;;;804.88;679.65;;;;;;;;;;5062755;28;20032;-52
2023/09/06 12:29:16;;;;;;;921.25;821.72;;;;;;;;;;5057050;28;20019;-55
2023/09/06 12:31:42;;;;;;;847.50;756.42;;;;;;;;;;5062302;28;20037;-52
2023/09/06 12:34:07;;;;;;;779.28;649.03;;;;;;;;;;5045949;28;20072;-53
2023/09/06 12:36:32;;;;;;;807.78;715.65;;;;;;;;;;5056242;28;20440;-51
2023/09/06 12:38:58;;;;;;;794.17;699.17;;;;;;;;;;5052831;28;20123;-53
2023/09/06 12:41:23;;;;;;;761.38;622.35;;;;;;;;;;5064149;28;20259;-53
2023/09/06 12:43:49;;;;;;;771.08;614.35;;;;;;;;;;5051856;28;20036;-55
2023/09/06 12:46:14;;;;;;;771.17;603.67;;;;;;;;;;5049097;28;20471;-49
2023/09/06 12:48:42;;;;;;;773.58;587.60;;;;;;;;;;5056725;28;20024;-52
2023/09/06 12:51:07;;;;;;;740.55;487.98;;;;;;;;;;5059073;28;20055;-56
2023/09/06 12:53:32;;;;;;;767.78;555.60;;;;;;;;;;5047039;28;20408;-55
2023/09/06 12:55:58;;;;;;;587.20;466.95;;;;;;;;;;5044885;28;20489;-61
2023/09/06 12:58:23;;;;;;;924.45;821.38;;;;;;;;;;5046769;28;20464;-52
2023/09/06 13:00:48;;;;;;;961.47;854.83;;;;;;;;;;5047105;28;20027;-53
2023/09/06 13:03:14;;;;;;;927.25;812.88;;;;;;;;;;5048945;28;20013;-52
2023/09/06 13:05:40;;;;;;;886.53;782.15;;;;;;;;;;5047885;28;20025;-47
2023/09/06 13:08:05;;;;;;;907.42;807.60;;;;;;;;;;5045641;28;20059;-47
2023/09/06 13:10:30;;;;;;;826.17;693.97;;;;;;;;;;5061293;28;20035;-50
2023/09/06 13:12:56;;;;;;;879.45;782.45;;;;;;;;;;5058276;28;20512;-57
2023/09/06 13:15:21;;;;;;;859.53;761.20;;;;;;;;;;5048070;28;20032;-54
2023/09/06 13:17:47;;;;;;;899.65;801.83;;;;;;;;;;5058858;28;20383;-54
2023/09/06 13:20:12;;;;;;;922.63;821.22;;;;;;;;;;5047631;28;20029;-53
2023/09/06 13:22:38;;;;;;;895.03;793.65;;;;;;;;;;5049043;28;20017;-53
2023/09/06 13:25:06;;;;;;;889.00;791.53;;;;;;;;;;5053408;28;20021;-50
2023/09/06 13:27:32;;;;;;;863.30;746.83;;;;;;;;;;5048849;28;20122;-53
2023/09/06 13:29:57;;;;;;;844.60;751.03;;;;;;;;;;5053175;28;20730;-56
2023/09/06 13:32:24;;;;;;;864.17;763.83;;;;;;;;;;5051101;28;20028;-52
2023/09/06 13:34:51;;;;;;;899.35;792.75;;;;;;;;;;5053204;28;20083;-54
2023/09/06 13:37:16;;;;;;;830.22;733.22;;;;;;;;;;5048066;28;20017;-54
2023/09/06 13:39:42;;;;;;;866.38;767.35;;;;;;;;;;5048195;28;20033;-56
2023/09/06 13:42:08;;;;;;;933.53;828.28;;;;;;;;;;5064233;28;20166;-54
2023/09/06 13:44:35;;;;;;;897.10;790.95;;;;;;;;;;5053022;28;20128;-52
2023/09/06 13:47:00;;;;;;;925.08;822.78;;;;;;;;;;5051628;28;20380;-53
2023/09/06 13:49:26;;;;;;;920.58;814.42;;;;;;;;;;5050294;28;20016;-48
2023/09/06 13:51:51;;;;;;;892.05;780.15;;;;;;;;;;5057993;28;20265;-51
2023/09/06 13:54:17;;;;;;;882.40;775.38;;;;;;;;;;5052761;28;20017;-52
2023/09/06 13:56:42;;;;;;;874.58;756.97;;;;;;;;;;5054389;28;20016;-50